Time;durP1;ratioP1;P1;durP2;ratioP2;P2;SDS_P1;SDS_P2;PMS_P1;PMS_P2;Temp;Humidity;BMP_temperature;BMP_pressure;BME280_temperature;BME280_humidity;BME280_pressure;Samples;Min_cycle;Max_cycle;Signal;HPM_P1;HPM_P2
2022/06/16 00:02:04;;;;;;;6.07;4.13;;;12.80;99.90;;;;;;5093278;28;20101;-78
2022/06/16 00:04:30;;;;;;;9.57;4.70;;;12.80;99.90;;;;;;5072953;28;20073;-79
2022/06/16 00:06:56;;;;;;;8.90;5.00;;;12.70;99.90;;;;;;5069119;28;20044;-78
2022/06/16 00:09:22;;;;;;;7.30;4.63;;;12.70;99.90;;;;;;5085260;28;20047;-78
2022/06/16 00:11:48;;;;;;;9.07;5.00;;;12.70;99.90;;;;;;5099119;28;20502;-78
2022/06/16 00:14:14;;;;;;;10.77;5.20;;;12.70;99.90;;;;;;5108725;28;20046;-78
2022/06/16 00:16:41;;;;;;;10.30;5.80;;;12.70;99.90;;;;;;5072392;28;20043;-78
2022/06/16 00:19:06;;;;;;;8.87;4.80;;;12.70;99.90;;;;;;5084905;28;20150;-78
2022/06/16 00:21:32;;;;;;;10.73;5.17;;;12.70;99.90;;;;;;5073007;28;20556;-78
2022/06/16 00:23:58;;;;;;;8.80;5.43;;;12.60;99.90;;;;;;5087594;28;20055;-77
2022/06/16 00:26:25;;;;;;;9.60;5.63;;;12.60;99.90;;;;;;5095059;28;20036;-77
2022/06/16 00:28:52;;;;;;;7.30;4.90;;;12.60;99.90;;;;;;5082117;28;20044;-77
2022/06/16 00:31:19;;;;;;;6.93;4.53;;;12.60;99.90;;;;;;5064426;28;20052;-77
2022/06/16 00:33:47;;;;;;;6.97;4.53;;;12.60;99.90;;;;;;5093050;28;20533;-76
2022/06/16 00:36:13;;;;;;;9.53;4.80;;;12.60;99.90;;;;;;5105680;28;20058;-75
2022/06/16 00:38:40;;;;;;;15.13;5.10;;;12.60;99.90;;;;;;5110499;28;20075;-76
2022/06/16 00:41:07;;;;;;;7.77;5.10;;;12.60;99.90;;;;;;5100343;28;20093;-78
2022/06/16 00:43:33;;;;;;;4.57;4.10;;;12.60;99.90;;;;;;5077195;28;20108;-77
2022/06/16 00:46:01;;;;;;;7.33;5.37;;;12.50;99.90;;;;;;5072626;28;22508;-78
2022/06/16 00:48:32;;;;;;;7.57;5.17;;;12.50;99.90;;;;;;5072268;28;20036;-78
2022/06/16 00:51:06;;;;;;;8.50;4.87;;;12.40;99.90;;;;;;5100759;28;20051;-78
2022/06/16 00:53:32;;;;;;;;;;;12.30;99.90;;;;;;5093848;28;20052;-78
2022/06/16 00:55:58;;;;;;;10.80;5.17;;;12.20;99.90;;;;;;5107522;28;19951;-78
2022/06/16 00:58:27;;;;;;;8.07;5.77;;;12.20;99.90;;;;;;5070551;28;20089;-77
2022/06/16 01:00:53;;;;;;;10.57;5.70;;;12.10;99.90;;;;;;5069315;28;20036;-78
2022/06/16 01:06:15;;;;;;;;;;;12.20;99.90;;;;;;5082634;27;20054;-77
2022/06/16 01:08:41;;;;;;;9.03;5.03;;;12.20;99.90;;;;;;5063192;28;19920;-77
2022/06/16 01:13:41;;;;;;;9.63;6.10;;;12.20;99.90;;;;;;5085186;28;20158;-77
2022/06/16 01:14:03;;;;;;;11.20;6.10;;;12.20;99.90;;;;;;5094619;28;20119;-78
2022/06/16 01:16:36;;;;;;;9.83;6.40;;;12.20;99.90;;;;;;5103684;28;20285;-77
2022/06/16 01:19:14;;;;;;;7.05;4.88;;;12.20;99.90;;;;;;5092685;28;20054;-78
2022/06/16 01:21:49;;;;;;;8.63;5.83;;;12.10;99.90;;;;;;5086493;28;20044;-78
2022/06/16 01:24:39;;;;;;;10.13;5.70;;;12.00;99.90;;;;;;5072265;28;20416;-77
2022/06/16 01:27:40;;;;;;;11.23;6.10;;;11.90;99.90;;;;;;5091538;28;20393;-78
2022/06/16 01:30:11;;;;;;;9.50;6.27;;;11.90;99.90;;;;;;5075262;28;20516;-77
2022/06/16 01:32:45;;;;;;;10.13;6.03;;;11.90;99.90;;;;;;5094475;28;20054;-76
2022/06/16 01:35:18;;;;;;;7.23;5.13;;;11.90;99.90;;;;;;5082958;28;20075;-77
2022/06/16 01:37:53;;;;;;;8.70;5.33;;;11.90;99.90;;;;;;5064015;28;20088;-75
2022/06/16 01:40:27;;;;;;;9.53;5.40;;;12.00;99.90;;;;;;5100888;28;20053;-76
2022/06/16 01:43:00;;;;;;;7.00;4.77;;;12.00;99.90;;;;;;5068013;28;20040;-78
2022/06/16 01:45:33;;;;;;;9.20;5.30;;;11.90;99.90;;;;;;5082042;28;20051;-77
2022/06/16 01:48:00;;;;;;;12.40;5.63;;;11.90;99.90;;;;;;5084813;28;20402;-77
2022/06/16 01:50:33;;;;;;;8.77;5.83;;;11.80;99.90;;;;;;5072742;28;20048;-78
2022/06/16 01:53:05;;;;;;;10.20;5.27;;;11.80;99.90;;;;;;5069118;28;20044;-78
2022/06/16 01:55:34;;;;;;;9.33;6.10;;;11.80;99.90;;;;;;5095569;28;20048;-78
2022/06/16 01:58:05;;;;;;;6.80;5.07;;;11.80;99.90;;;;;;5071709;28;20059;-77
2022/06/16 02:00:34;;;;;;;7.77;5.20;;;11.70;99.90;;;;;;5088225;28;20092;-78
2022/06/16 02:03:05;;;;;;;8.47;5.60;;;11.70;99.90;;;;;;5087788;28;20794;-77
2022/06/16 02:05:36;;;;;;;11.23;5.73;;;11.70;99.90;;;;;;5092926;28;20051;-78
2022/06/16 02:08:17;;;;;;;8.57;6.17;;;11.70;99.90;;;;;;5073195;28;20044;-77
2022/06/16 02:10:47;;;;;;;8.20;5.40;;;11.70;99.90;;;;;;5070706;28;20047;-77
2022/06/16 02:13:20;;;;;;;10.17;5.27;;;11.70;99.90;;;;;;5094222;28;20044;-77
2022/06/16 02:15:56;;;;;;;11.10;5.77;;;11.70;99.90;;;;;;5073715;28;20044;-77
2022/06/16 02:18:25;;;;;;;10.77;5.77;;;11.80;99.90;;;;;;5091803;28;20043;-77
2022/06/16 02:20:55;;;;;;;9.17;5.27;;;11.80;99.90;;;;;;5089624;28;20043;-77
2022/06/16 02:23:21;;;;;;;11.90;5.77;;;11.80;99.90;;;;;;5108859;28;20408;-77
2022/06/16 02:25:51;;;;;;;9.23;6.17;;;11.80;99.90;;;;;;5093265;28;20095;-77
2022/06/16 02:28:16;;;;;;;10.17;6.27;;;11.90;99.90;;;;;;5084955;28;20036;-77
2022/06/16 02:30:58;;;;;;;12.63;6.03;;;11.90;99.90;;;;;;5076684;28;20051;-78
2022/06/16 02:33:31;;;;;;;9.20;5.67;;;11.90;99.90;;;;;;5083820;28;20066;-78
2022/06/16 02:36:05;;;;;;;10.45;6.10;;;11.90;99.90;;;;;;5082514;28;20044;-77
2022/06/16 02:38:46;;;;;;;8.03;5.40;;;11.80;99.90;;;;;;5064408;28;20039;-77
2022/06/16 02:41:20;;;;;;;10.30;5.83;;;11.80;99.90;;;;;;5107756;28;20036;-78
2022/06/16 02:43:49;;;;;;;;;;;11.80;99.90;;;;;;5094660;28;20471;-78
2022/06/16 02:46:27;;;;;;;11.10;5.30;;;11.80;99.90;;;;;;5096825;28;20209;-77
2022/06/16 02:49:08;;;;;;;10.43;6.33;;;11.80;99.90;;;;;;5072802;28;20048;-77
2022/06/16 02:51:40;;;;;;;7.40;5.57;;;11.80;99.90;;;;;;5083653;28;20128;-77
2022/06/16 02:54:20;;;;;;;13.07;5.77;;;11.80;99.90;;;;;;5070961;28;20036;-77
2022/06/16 02:56:54;;;;;;;9.20;5.53;;;11.80;99.90;;;;;;5074423;28;20036;-77
2022/06/16 02:59:22;;;;;;;8.23;5.80;;;11.90;99.90;;;;;;5068119;28;20069;-77
2022/06/16 03:01:51;;;;;;;11.40;7.00;;;11.90;99.90;;;;;;5092871;28;20035;-78
2022/06/16 03:04:19;;;;;;;10.77;6.67;;;11.90;99.90;;;;;;5081591;28;20043;-78
2022/06/16 03:06:46;;;;;;;9.13;5.73;;;11.90;99.90;;;;;;5096008;28;20123;-77
2022/06/16 03:09:13;;;;;;;10.07;6.07;;;12.00;99.90;;;;;;5059439;28;20066;-77
2022/06/16 03:11:40;;;;;;;10.33;5.70;;;12.00;99.90;;;;;;5087145;28;20069;-77
2022/06/16 03:14:10;;;;;;;9.50;5.97;;;12.00;99.90;;;;;;5059463;28;20501;-78
2022/06/16 03:16:40;;;;;;;9.53;5.73;;;12.00;99.90;;;;;;5102701;28;20035;-77
2022/06/16 03:19:08;;;;;;;9.00;5.60;;;12.00;99.90;;;;;;5093455;28;20035;-77
2022/06/16 03:21:33;;;;;;;12.80;6.30;;;12.00;99.90;;;;;;5079844;28;20592;-78
2022/06/16 03:23:59;;;;;;;10.23;6.30;;;11.90;99.90;;;;;;5084225;28;20126;-77
2022/06/16 03:26:27;;;;;;;10.80;6.27;;;11.90;99.90;;;;;;5088245;28;20045;-78
2022/06/16 03:28:56;;;;;;;14.77;6.20;;;11.90;99.90;;;;;;5089031;28;20086;-78
2022/06/16 03:31:22;;;;;;;8.40;6.33;;;11.90;99.90;;;;;;5093461;28;20492;-77
2022/06/16 03:33:51;;;;;;;10.53;6.63;;;11.90;99.90;;;;;;5080318;28;20054;-77
2022/06/16 03:36:19;;;;;;;11.17;6.53;;;11.90;99.90;;;;;;5071312;28;20067;-78
2022/06/16 03:38:45;;;;;;;7.40;5.03;;;11.90;99.90;;;;;;5079143;28;20083;-77
2022/06/16 03:41:14;;;;;;;12.43;6.53;;;11.80;99.90;;;;;;5092426;28;20101;-78
2022/06/16 03:43:42;;;;;;;7.93;5.83;;;11.80;99.90;;;;;;5075304;28;20052;-78
2022/06/16 03:46:20;;;;;;;10.30;6.20;;;11.80;99.90;;;;;;5067266;28;20089;-78
2022/06/16 03:48:57;;;;;;;13.67;6.87;;;11.70;99.90;;;;;;5080783;28;20027;-78
2022/06/16 03:51:38;;;;;;;9.10;5.13;;;11.70;99.90;;;;;;5082165;28;20048;-78
2022/06/16 03:54:04;;;;;;;10.43;6.47;;;11.70;99.90;;;;;;5093242;28;20047;-78
2022/06/16 03:56:32;;;;;;;12.07;6.40;;;11.60;99.90;;;;;;5084830;28;20040;-78
2022/06/16 03:58:59;;;;;;;10.73;5.63;;;11.60;99.90;;;;;;5080866;28;20067;-77
2022/06/16 04:01:25;;;;;;;7.40;5.10;;;11.60;99.90;;;;;;5075447;28;20113;-77
2022/06/16 04:03:59;;;;;;;9.27;6.07;;;11.60;99.90;;;;;;5080393;28;20474;-77
2022/06/16 04:06:27;;;;;;;10.53;6.20;;;11.50;99.90;;;;;;5078620;28;20574;-77
2022/06/16 04:08:54;;;;;;;10.23;6.77;;;11.50;99.90;;;;;;5079441;28;20046;-78
2022/06/16 04:11:30;;;;;;;10.33;6.00;;;11.50;99.90;;;;;;5090228;28;20051;-77
2022/06/16 04:14:02;;;;;;;9.30;5.53;;;11.60;99.90;;;;;;5087465;28;20548;-77
2022/06/16 04:16:31;;;;;;;14.27;7.13;;;11.60;99.90;;;;;;5078995;28;20461;-77
2022/06/16 04:18:57;;;;;;;8.40;6.27;;;11.70;99.90;;;;;;5073778;28;20504;-78
2022/06/16 04:21:23;;;;;;;13.80;6.80;;;11.70;99.90;;;;;;5081236;28;20462;-77
2022/06/16 04:24:12;;;;;;;10.83;6.83;;;11.70;99.90;;;;;;5065030;28;20042;-77
2022/06/16 04:26:38;;;;;;;11.37;6.50;;;11.80;99.90;;;;;;5076532;28;20051;-77
2022/06/16 04:29:03;;;;;;;10.07;7.13;;;11.90;99.90;;;;;;5061093;28;20081;-77
2022/06/16 04:31:30;;;;;;;11.43;6.83;;;12.00;99.90;;;;;;5064566;28;20114;-78
2022/06/16 04:33:56;;;;;;;8.60;5.87;;;12.10;99.90;;;;;;5067138;28;21059;-78
2022/06/16 04:36:22;;;;;;;9.80;6.80;;;12.20;99.90;;;;;;5106056;27;20067;-78
2022/06/16 04:39:01;;;;;;;8.50;6.40;;;12.30;99.90;;;;;;5068244;28;20043;-77
2022/06/16 04:41:28;;;;;;;8.37;7.00;;;12.30;99.90;;;;;;5070064;28;20051;-77
2022/06/16 04:43:54;;;;;;;9.73;6.90;;;12.50;99.90;;;;;;5069489;28;20065;-77
2022/06/16 04:46:21;;;;;;;14.17;7.00;;;12.60;99.90;;;;;;5086038;28;20047;-77
2022/06/16 04:48:49;;;;;;;11.37;6.83;;;12.70;99.90;;;;;;5072186;28;20039;-77
2022/06/16 04:51:17;;;;;;;11.20;7.47;;;12.80;99.90;;;;;;5085287;28;20039;-78
2022/06/16 04:53:47;;;;;;;12.13;7.40;;;12.90;99.90;;;;;;5092183;28;20416;-77
2022/06/16 04:56:17;;;;;;;10.80;6.67;;;13.00;99.90;;;;;;5082938;28;20058;-77
2022/06/16 04:58:56;;;;;;;10.70;7.00;;;13.10;99.90;;;;;;5084083;28;20041;-78
2022/06/16 05:01:37;;;;;;;11.47;7.80;;;13.20;99.90;;;;;;5104608;28;20043;-78
2022/06/16 05:04:15;;;;;;;13.47;7.50;;;13.30;99.90;;;;;;5087589;28;20036;-79
2022/06/16 05:07:13;;;;;;;11.47;7.13;;;13.40;99.90;;;;;;5088343;28;20497;-78
2022/06/16 05:09:53;;;;;;;12.10;7.53;;;13.50;99.90;;;;;;5090724;28;20067;-77
2022/06/16 05:12:45;;;;;;;14.37;7.40;;;13.60;99.90;;;;;;5085384;28;20548;-78
2022/06/16 05:15:26;;;;;;;10.50;6.73;;;13.70;99.90;;;;;;5106124;28;20126;-78
2022/06/16 05:18:14;;;;;;;13.40;7.33;;;13.80;99.90;;;;;;5108569;28;20126;-78
2022/06/16 05:21:03;;;;;;;14.63;8.10;;;14.00;99.90;;;;;;5105124;27;20043;-77
2022/06/16 05:24:01;;;;;;;12.37;7.80;;;14.00;99.90;;;;;;5064539;28;20120;-78
2022/06/16 05:26:45;;;;;;;9.27;6.93;;;14.10;99.90;;;;;;5086045;28;20092;-77
2022/06/16 05:29:23;;;;;;;10.00;8.37;;;14.20;99.90;;;;;;5088307;28;20179;-79
2022/06/16 05:32:11;;;;;;;13.90;8.70;;;14.30;99.90;;;;;;5097903;28;20035;-78
2022/06/16 05:35:07;;;;;;;12.93;7.57;;;14.40;99.90;;;;;;5093311;28;20471;-77
2022/06/16 05:37:39;;;;;;;20.48;9.00;;;14.50;99.90;;;;;;5065455;28;20046;-78
2022/06/16 05:40:24;;;;;;;;;;;14.60;99.90;;;;;;5100064;28;20096;-77
2022/06/16 05:43:03;;;;;;;13.53;7.93;;;14.70;99.90;;;;;;5080564;28;19923;-78
2022/06/16 05:45:47;;;;;;;14.45;8.77;;;14.80;99.90;;;;;;5109366;27;20035;-77
2022/06/16 05:48:24;;;;;;;12.63;7.93;;;14.80;99.90;;;;;;5108984;28;20304;-77
2022/06/16 05:50:54;;;;;;;10.23;6.77;;;14.80;99.90;;;;;;5079338;28;20048;-78
2022/06/16 05:53:21;;;;;;;14.83;7.87;;;14.90;99.90;;;;;;5073975;28;20044;-78
2022/06/16 05:55:48;;;;;;;10.70;6.87;;;14.90;99.90;;;;;;5082179;28;20035;-78
2022/06/16 05:58:14;;;;;;;10.77;6.37;;;14.90;99.90;;;;;;5106324;28;20032;-78
2022/06/16 06:00:49;;;;;;;10.63;6.27;;;15.10;99.90;;;;;;5080994;28;20051;-77
2022/06/16 06:03:19;;;;;;;13.73;6.10;;;15.10;99.90;;;;;;5083936;28;20039;-77
2022/06/16 06:05:46;;;;;;;10.93;5.50;;;15.10;99.90;;;;;;5086753;28;20040;-77
2022/06/16 06:16:36;;;;;;;9.47;4.63;;;15.20;99.90;;;;;;5084558;28;20035;-78
2022/06/16 06:19:23;;;;;;;10.83;5.00;;;15.30;99.90;;;;;;5083939;28;20485;-78
2022/06/16 06:22:09;;;;;;;9.50;4.40;;;15.40;99.90;;;;;;5072555;28;20447;-75
2022/06/16 06:24:37;;;;;;;7.07;2.50;;;15.40;99.90;;;;;;5066006;28;20608;-76
2022/06/16 06:27:15;;;;;;;6.87;2.43;;;15.40;99.90;;;;;;5085185;28;20131;-76
2022/06/16 06:29:41;;;;;;;5.93;2.20;;;15.50;99.90;;;;;;5069204;28;20193;-77
2022/06/16 06:32:07;;;;;;;4.70;2.10;;;15.50;99.90;;;;;;5080199;28;20313;-76
2022/06/16 06:34:33;;;;;;;9.70;3.23;;;15.50;99.90;;;;;;5064175;28;20131;-76
2022/06/16 06:37:01;;;;;;;7.83;2.00;;;15.60;99.90;;;;;;5064344;28;20039;-76
2022/06/16 06:39:28;;;;;;;6.87;1.90;;;15.60;99.90;;;;;;5066145;28;20127;-76
2022/06/16 06:41:54;;;;;;;6.47;2.20;;;15.70;99.90;;;;;;5083292;28;20131;-78
2022/06/16 06:44:20;;;;;;;4.40;1.80;;;15.80;99.90;;;;;;5078110;28;20143;-75
2022/06/16 06:46:46;;;;;;;7.43;2.13;;;15.90;99.90;;;;;;5103798;28;20039;-75
2022/06/16 06:49:11;;;;;;;8.90;2.53;;;15.90;99.90;;;;;;5106435;28;20032;-78
2022/06/16 06:51:37;;;;;;;5.30;2.00;;;16.00;99.90;;;;;;5102606;28;20555;-76
2022/06/16 06:54:05;;;;;;;5.17;1.97;;;16.00;99.90;;;;;;5087842;28;20062;-77
2022/06/16 06:56:32;;;;;;;5.73;2.00;;;16.00;99.90;;;;;;5101510;28;20134;-75
2022/06/16 06:59:01;;;;;;;4.77;1.60;;;16.10;99.90;;;;;;5102956;28;20043;-76
2022/06/16 07:01:26;;;;;;;5.67;1.73;;;16.10;99.90;;;;;;5102056;28;20092;-77
2022/06/16 07:03:52;;;;;;;4.47;1.47;;;16.20;99.90;;;;;;5084728;28;20047;-77
2022/06/16 07:06:19;;;;;;;3.83;1.67;;;16.40;99.90;;;;;;5086205;28;20066;-77
2022/06/16 07:08:45;;;;;;;4.67;1.50;;;16.50;99.90;;;;;;5102747;28;20043;-78
2022/06/16 07:11:12;;;;;;;5.70;1.50;;;16.70;99.90;;;;;;5086278;28;20057;-78
2022/06/16 07:13:38;;;;;;;3.67;1.60;;;16.90;99.90;;;;;;5107724;28;20066;-78
2022/06/16 07:16:05;;;;;;;2.70;1.30;;;17.10;99.90;;;;;;5108255;28;20040;-77
2022/06/16 07:18:31;;;;;;;4.60;1.30;;;17.10;99.90;;;;;;5110094;28;20051;-78
2022/06/16 07:20:57;;;;;;;3.50;1.60;;;17.10;99.90;;;;;;5090638;28;20451;-76
2022/06/16 07:23:23;;;;;;;6.63;1.70;;;17.20;99.90;;;;;;5085735;28;20047;-76
2022/06/16 07:25:50;;;;;;;5.17;1.50;;;17.10;99.90;;;;;;5108915;28;20039;-77
2022/06/16 07:28:18;;;;;;;6.10;1.50;;;17.10;99.90;;;;;;5108158;28;20056;-77
2022/06/16 07:30:44;;;;;;;6.40;1.63;;;17.10;99.90;;;;;;5084689;28;20063;-78
2022/06/16 07:33:12;;;;;;;7.27;1.60;;;17.10;99.90;;;;;;5085891;28;20047;-77
2022/06/16 07:35:40;;;;;;;4.07;1.40;;;17.10;99.90;;;;;;5102203;28;20111;-77
2022/06/16 07:38:06;;;;;;;4.23;1.77;;;17.10;99.90;;;;;;5071645;28;20123;-78
2022/06/16 07:40:32;;;;;;;6.43;1.47;;;17.10;99.90;;;;;;5075632;28;20138;-76
2022/06/16 07:42:57;;;;;;;5.47;1.73;;;17.10;99.90;;;;;;5094479;28;20044;-78
2022/06/16 07:45:25;;;;;;;4.73;1.27;;;17.10;99.90;;;;;;5087722;28;20044;-79
2022/06/16 07:47:52;;;;;;;4.53;1.73;;;17.10;99.90;;;;;;5098405;28;20086;-78
2022/06/16 07:50:18;;;;;;;3.67;1.47;;;17.10;99.90;;;;;;5103492;28;20043;-78
2022/06/16 07:52:44;;;;;;;4.90;1.63;;;17.20;99.90;;;;;;5083135;28;20051;-78
2022/06/16 07:55:11;;;;;;;6.10;1.57;;;17.20;99.90;;;;;;5080400;28;20178;-77
2022/06/16 07:57:41;;;;;;;5.20;1.40;;;17.30;99.90;;;;;;5089413;28;20121;-78
2022/06/16 08:00:08;;;;;;;4.07;1.23;;;17.30;99.90;;;;;;5096289;28;20089;-78
2022/06/16 08:02:39;;;;;;;6.60;1.90;;;17.40;99.90;;;;;;5098095;28;20043;-77
2022/06/16 08:05:06;;;;;;;4.23;1.30;;;17.40;99.90;;;;;;5105099;28;20055;-77
2022/06/16 08:07:32;;;;;;;6.93;1.60;;;17.40;99.90;;;;;;5112659;28;20082;-76
2022/06/16 08:09:58;;;;;;;3.70;1.10;;;17.40;99.90;;;;;;5095207;28;20079;-75
2022/06/16 08:12:26;;;;;;;3.50;1.20;;;17.50;99.90;;;;;;5129459;27;20588;-76
2022/06/16 08:14:52;;;;;;;3.90;1.47;;;17.60;99.90;;;;;;5109485;28;20232;-77
2022/06/16 08:17:21;;;;;;;4.20;1.40;;;17.60;99.90;;;;;;5088430;28;20046;-76
2022/06/16 08:19:48;;;;;;;4.47;1.30;;;17.70;99.90;;;;;;5109372;28;20078;-76
2022/06/16 08:22:14;;;;;;;4.87;1.20;;;17.80;99.90;;;;;;5080302;28;20051;-78
2022/06/16 08:24:40;;;;;;;7.07;2.33;;;17.80;99.90;;;;;;5086402;28;20048;-75
2022/06/16 08:27:06;;;;;;;3.03;1.27;;;17.90;99.90;;;;;;5106469;27;20046;-75
2022/06/16 08:29:33;;;;;;;4.13;1.70;;;18.00;99.90;;;;;;5085057;28;20074;-77
2022/06/16 08:31:59;;;;;;;2.17;1.13;;;18.00;99.90;;;;;;5098356;28;20032;-77
2022/06/16 08:34:25;;;;;;;4.13;1.43;;;18.10;99.90;;;;;;5091837;28;20144;-76
2022/06/16 08:36:55;;;;;;;2.80;1.60;;;18.10;99.90;;;;;;5076081;28;20138;-78
2022/06/16 08:39:21;;;;;;;2.83;1.20;;;18.20;99.90;;;;;;5108636;28;20501;-76
2022/06/16 08:41:49;;;;;;;3.07;1.20;;;18.30;99.90;;;;;;5073515;28;20047;-76
2022/06/16 08:44:22;;;;;;;6.23;1.43;;;18.40;99.90;;;;;;5110093;28;20122;-75
2022/06/16 08:47:00;;;;;;;8.40;1.80;;;18.40;99.90;;;;;;5109825;28;20055;-76
2022/06/16 08:49:31;;;;;;;3.30;1.47;;;18.50;99.90;;;;;;5103759;28;20044;-77
2022/06/16 08:52:09;;;;;;;8.23;2.03;;;18.60;99.90;;;;;;5072967;28;20066;-74
2022/06/16 08:54:46;;;;;;;4.27;1.50;;;18.60;99.90;;;;;;5090187;28;20047;-76
2022/06/16 08:57:20;;;;;;;4.20;1.60;;;18.80;99.90;;;;;;5086441;28;20036;-75
2022/06/16 08:59:51;;;;;;;5.13;1.70;;;18.80;99.90;;;;;;5086552;28;20035;-76
2022/06/16 09:02:25;;;;;;;5.13;1.30;;;18.90;99.90;;;;;;5084436;28;20050;-77
2022/06/16 09:04:57;;;;;;;5.20;1.80;;;19.00;99.90;;;;;;5084576;28;20657;-77
2022/06/16 09:07:39;;;;;;;5.73;1.67;;;19.10;99.90;;;;;;5087332;28;20039;-77
2022/06/16 09:10:18;;;;;;;5.50;1.83;;;19.20;99.90;;;;;;5100224;28;20097;-77
2022/06/16 09:13:14;;;;;;;4.70;1.80;;;19.40;99.90;;;;;;5085505;28;20138;-76
2022/06/16 09:15:47;;;;;;;6.47;2.10;;;19.70;99.90;;;;;;5095349;28;20424;-75
2022/06/16 09:18:25;;;;;;;6.00;1.70;;;20.00;99.90;;;;;;5090229;28;20337;-75
2022/06/16 09:20:58;;;;;;;3.53;1.90;;;20.10;99.90;;;;;;5104679;28;20051;-75
2022/06/16 09:23:38;;;;;;;4.28;1.60;;;20.20;99.90;;;;;;5100883;28;20623;-77
2022/06/16 09:26:17;;;;;;;4.47;1.70;;;20.30;99.90;;;;;;5110138;28;20130;-77
2022/06/16 09:28:49;;;;;;;6.13;1.70;;;20.50;99.90;;;;;;5090727;28;20040;-79
2022/06/16 09:31:28;;;;;;;5.03;1.63;;;20.70;99.90;;;;;;5112413;28;20043;-76
2022/06/16 09:34:02;;;;;;;6.80;1.77;;;20.90;99.90;;;;;;5089174;28;20040;-78
2022/06/16 09:36:31;;;;;;;4.18;1.98;;;21.00;99.90;;;;;;5083196;28;20039;-77
2022/06/16 09:39:03;;;;;;;4.00;1.83;;;21.20;99.90;;;;;;5085075;28;20111;-77
2022/06/16 09:44:26;;;;;;;4.77;2.27;;;21.80;99.90;;;;;;5109088;28;20528;-78
2022/06/16 09:47:00;;;;;;;7.68;2.45;;;22.20;99.90;;;;;;5104502;28;20141;-78
2022/06/16 09:49:33;;;;;;;8.83;2.20;;;22.60;99.90;;;;;;5089304;28;20058;-76
2022/06/16 09:52:04;;;;;;;7.47;2.40;;;22.90;99.90;;;;;;5103283;28;20446;-77
2022/06/16 09:54:36;;;;;;;8.73;2.47;;;23.20;99.90;;;;;;5111087;28;20301;-76
2022/06/16 09:57:06;;;;;;;8.50;2.20;;;23.40;99.90;;;;;;5100190;28;20040;-78
2022/06/16 09:59:34;;;;;;;5.33;2.20;;;23.70;99.40;;;;;;5087980;28;20048;-78
2022/06/16 10:02:04;;;;;;;4.27;1.70;;;23.70;97.00;;;;;;5094824;28;20043;-78
2022/06/16 10:04:30;;;;;;;3.58;1.85;;;23.60;96.10;;;;;;5076289;28;20044;-75
2022/06/16 10:07:05;;;;;;;4.82;2.15;;;23.80;97.40;;;;;;5105823;27;20047;-76
2022/06/16 10:09:37;;;;;;;5.13;1.92;;;24.10;97.20;;;;;;5090498;28;20032;-75
2022/06/16 10:12:11;;;;;;;5.07;2.10;;;24.30;95.90;;;;;;5089052;28;20059;-76
2022/06/16 10:14:42;;;;;;;5.35;1.98;;;24.20;93.40;;;;;;5084251;28;20044;-76
2022/06/16 10:17:12;;;;;;;4.32;1.80;;;24.30;94.30;;;;;;5088157;28;20039;-76
2022/06/16 10:19:43;;;;;;;4.72;2.30;;;24.60;95.30;;;;;;5078414;28;20040;-76
2022/06/16 10:22:11;;;;;;;7.25;2.53;;;25.00;95.20;;;;;;5103246;28;20378;-75
2022/06/16 10:24:41;;;;;;;6.78;2.55;;;25.20;91.00;;;;;;5104096;28;20489;-75
2022/06/16 10:27:09;;;;;;;5.32;2.10;;;25.00;84.30;;;;;;5100333;27;20054;-75
2022/06/16 10:29:36;;;;;;;6.80;2.20;;;24.90;89.30;;;;;;5082684;28;20036;-75
2022/06/16 10:32:03;;;;;;;5.35;2.50;;;25.10;91.00;;;;;;5099991;27;20097;-75
2022/06/16 10:34:31;;;;;;;4.65;1.75;;;25.40;91.20;;;;;;5088423;27;20054;-76
2022/06/16 10:37:06;;;;;;;5.38;1.95;;;25.30;85.30;;;;;;5089122;28;20054;-74
2022/06/16 10:39:42;;;;;;;6.03;2.00;;;25.20;87.50;;;;;;5107717;27;20248;-76
2022/06/16 10:42:15;;;;;;;4.75;2.28;;;25.50;86.50;;;;;;5085815;28;20475;-75
2022/06/16 10:44:47;;;;;;;5.07;2.00;;;25.80;89.80;;;;;;5104718;28;20043;-74
2022/06/16 10:47:20;;;;;;;6.80;2.30;;;26.00;87.40;;;;;;5082776;27;20496;-76
2022/06/16 10:49:48;;;;;;;3.67;2.30;;;26.10;86.60;;;;;;5076279;28;20544;-77
2022/06/16 10:52:21;;;;;;;3.78;2.08;;;26.20;88.80;;;;;;5108617;28;20044;-76
2022/06/16 10:54:58;;;;;;;5.15;2.10;;;26.50;88.30;;;;;;5094429;28;20468;-75
2022/06/16 10:57:27;;;;;;;6.38;2.40;;;26.20;85.00;;;;;;5109768;28;20044;-76
2022/06/16 10:59:57;;;;;;;5.07;2.10;;;26.20;88.50;;;;;;5087451;28;20039;-77
2022/06/16 11:02:27;;;;;;;8.35;2.45;;;26.50;89.20;;;;;;5091736;28;20047;-78
2022/06/16 11:04:58;;;;;;;5.40;2.35;;;26.70;85.20;;;;;;5088690;28;20341;-76
2022/06/16 11:07:27;;;;;;;5.95;2.08;;;26.50;80.80;;;;;;5079661;28;20505;-74
2022/06/16 11:10:02;;;;;;;6.97;2.67;;;26.20;80.80;;;;;;5088260;28;20035;-76
2022/06/16 11:12:30;;;;;;;6.57;2.65;;;26.10;84.70;;;;;;5087463;28;20523;-77
2022/06/16 11:14:59;;;;;;;5.35;2.30;;;26.30;85.80;;;;;;5084076;28;20039;-77
2022/06/16 11:17:27;;;;;;;7.85;2.47;;;26.60;86.70;;;;;;5107356;28;20043;-77
2022/06/16 11:19:59;;;;;;;4.35;2.30;;;26.90;87.20;;;;;;5092714;28;20052;-78
2022/06/16 11:22:34;;;;;;;5.63;2.40;;;27.10;83.80;;;;;;5100154;28;20554;-77
2022/06/16 11:25:05;;;;;;;5.57;2.40;;;26.40;83.40;;;;;;5093714;28;20065;-76
2022/06/16 11:27:40;;;;;;;5.97;2.80;;;26.10;84.80;;;;;;5092652;28;20130;-76
2022/06/16 11:30:28;;;;;;;9.73;2.90;;;26.40;85.60;;;;;;5110535;28;20066;-75
2022/06/16 11:32:54;;;;;;;6.20;2.80;;;26.80;86.00;;;;;;5086910;28;20496;-75
2022/06/16 11:35:22;;;;;;;8.73;2.47;;;27.20;81.30;;;;;;5079835;28;20043;-78
2022/06/16 11:37:56;;;;;;;6.13;3.08;;;26.90;80.60;;;;;;5076887;28;20036;-76
2022/06/16 11:40:33;;;;;;;8.35;2.78;;;26.80;82.80;;;;;;5086391;28;20090;-77
2022/06/16 11:43:28;;;;;;;4.75;2.70;;;27.10;84.20;;;;;;5102623;28;20083;-77
2022/06/16 11:46:01;;;;;;;4.50;2.70;;;27.50;83.80;;;;;;5089358;28;20059;-78
2022/06/16 11:48:34;;;;;;;6.25;2.38;;;27.80;81.60;;;;;;5106902;28;20046;-77
2022/06/16 11:51:05;;;;;;;4.65;2.50;;;28.00;80.80;;;;;;5093112;28;20760;-76
2022/06/16 11:53:47;;;;;;;4.80;2.20;;;28.10;74.90;;;;;;5108982;28;20043;-76
2022/06/16 11:56:24;;;;;;;6.75;2.28;;;27.90;76.90;;;;;;5079823;28;20042;-77
2022/06/16 11:59:20;;;;;;;5.50;2.33;;;28.10;76.20;;;;;;5107765;28;20132;-77
2022/06/16 12:01:48;;;;;;;5.78;2.60;;;28.40;75.10;;;;;;5069067;28;20067;-77
2022/06/16 12:04:35;;;;;;;6.72;2.75;;;28.20;70.20;;;;;;5107974;28;20733;-76
2022/06/16 12:07:17;;;;;;;7.13;2.35;;;27.90;73.60;;;;;;5098494;28;20413;-76
2022/06/16 12:09:47;;;;;;;5.05;2.25;;;27.90;75.30;;;;;;5106600;28;20047;-75
2022/06/16 12:12:20;;;;;;;7.55;2.03;;;27.80;74.50;;;;;;5089068;28;20048;-77
2022/06/16 12:14:56;;;;;;;5.10;2.33;;;27.90;75.00;;;;;;5068189;28;20085;-74
2022/06/16 12:17:26;;;;;;;3.78;2.20;;;27.90;73.50;;;;;;5087122;28;20035;-77
2022/06/16 12:20:02;;;;;;;4.80;2.40;;;27.90;74.30;;;;;;5085499;28;20438;-74
2022/06/16 12:22:34;;;;;;;3.97;2.58;;;28.10;73.30;;;;;;5110217;27;20039;-75
2022/06/16 12:25:04;;;;;;;5.03;2.50;;;28.20;71.00;;;;;;5104090;27;20067;-76
2022/06/16 12:27:40;;;;;;;5.70;2.67;;;27.70;64.90;;;;;;5107555;28;20067;-78
2022/06/16 12:30:13;;;;;;;7.32;2.80;;;27.00;67.70;;;;;;5066850;28;20048;-78
2022/06/16 12:32:50;;;;;;;6.00;2.83;;;26.40;70.70;;;;;;5085964;28;20075;-76
2022/06/16 12:35:23;;;;;;;6.93;2.88;;;25.90;72.70;;;;;;5070894;28;20489;-77
2022/06/16 12:37:51;;;;;;;;;;;25.40;69.40;;;;;;5105427;28;20410;-76
2022/06/16 12:40:22;;;;;;;5.63;2.83;;;24.90;69.60;;;;;;5108749;28;19922;-76
2022/06/16 12:42:55;;;;;;;6.00;3.08;;;25.20;74.00;;;;;;5084505;28;20501;-76
2022/06/16 12:45:26;;;;;;;5.57;2.63;;;25.80;76.10;;;;;;5092906;28;20047;-75
2022/06/16 12:47:56;;;;;;;5.53;2.20;;;26.20;71.60;;;;;;5088459;28;20039;-76
2022/06/16 12:50:28;;;;;;;6.93;2.70;;;26.20;70.90;;;;;;5105944;28;20059;-78
2022/06/16 12:53:00;;;;;;;5.20;2.35;;;26.20;73.00;;;;;;5087541;28;20081;-77
2022/06/16 12:55:31;;;;;;;6.97;2.30;;;26.10;73.30;;;;;;5106138;28;20071;-76
2022/06/16 12:58:02;;;;;;;4.97;2.95;;;26.20;74.50;;;;;;5105531;28;20055;-75
2022/06/16 13:00:33;;;;;;;7.00;2.55;;;26.60;75.30;;;;;;5100872;28;20046;-77
2022/06/16 13:03:04;;;;;;;6.43;2.75;;;26.90;75.60;;;;;;5108050;28;20061;-77
2022/06/16 13:05:31;;;;;;;6.63;2.65;;;27.20;73.90;;;;;;5108606;28;20547;-75
2022/06/16 13:07:58;;;;;;;6.45;2.28;;;27.20;71.90;;;;;;5097443;28;20443;-76
2022/06/16 13:10:24;;;;;;;5.57;2.47;;;26.80;72.90;;;;;;5086296;28;20088;-75
2022/06/16 13:12:55;;;;;;;4.60;2.25;;;26.30;71.60;;;;;;5107237;28;20048;-77
2022/06/16 13:15:27;;;;;;;6.95;2.85;;;25.70;72.90;;;;;;5088000;28;20043;-76
2022/06/16 13:18:05;;;;;;;10.23;2.90;;;25.30;76.00;;;;;;5106064;27;20550;-75
2022/06/16 13:20:33;;;;;;;4.03;2.20;;;25.60;78.80;;;;;;5098302;28;20373;-75
2022/06/16 13:23:03;;;;;;;4.40;2.63;;;26.00;77.70;;;;;;5106807;28;20046;-76